Time;durP1;ratioP1;P1;durP2;ratioP2;P2;SDS_P1;SDS_P2;PMS_P1;PMS_P2;Temp;Humidity;BMP_temperature;BMP_pressure;BME280_temperature;BME280_humidity;BME280_pressure;Samples;Min_cycle;Max_cycle;Signal;HPM_P1;HPM_P2
2023/07/27 00:00:41;;;;;;;0.75;0.30;;;16.10;99.90;;;;;;4209127;28;20109;-61
2023/07/27 00:02:42;;;;;;;0.32;0.25;;;16.00;99.90;;;;;;4209942;28;20028;-61
2023/07/27 00:04:43;;;;;;;0.20;0.20;;;16.00;99.90;;;;;;4209499;28;20172;-62
2023/07/27 00:06:46;;;;;;;0.98;0.20;;;15.90;99.90;;;;;;4209370;28;20480;-61
2023/07/27 00:08:47;;;;;;;0.50;0.40;;;15.90;99.90;;;;;;4209341;28;20028;-62
2023/07/27 00:10:48;;;;;;;1.85;0.45;;;15.80;99.90;;;;;;4209138;28;20100;-60
2023/07/27 00:12:50;;;;;;;1.45;0.32;;;15.80;99.90;;;;;;4210228;28;20059;-60
2023/07/27 00:14:52;;;;;;;2.65;0.30;;;15.70;99.90;;;;;;4209638;28;20073;-62
2023/07/27 00:16:53;;;;;;;0.55;0.20;;;15.70;99.90;;;;;;4210635;28;20032;-61
2023/07/27 00:18:54;;;;;;;0.20;0.10;;;15.60;99.90;;;;;;4209462;28;20541;-62
2023/07/27 00:20:55;;;;;;;2.30;0.10;;;15.60;99.90;;;;;;4210851;28;20541;-64
2023/07/27 00:22:56;;;;;;;0.20;0.10;;;15.60;99.90;;;;;;4209394;28;20040;-61
2023/07/27 00:24:57;;;;;;;1.67;0.10;;;15.70;99.90;;;;;;4210573;28;20036;-62
2023/07/27 00:26:58;;;;;;;0.90;0.00;;;15.60;99.90;;;;;;4209523;28;20048;-63
2023/07/27 00:28:59;;;;;;;0.13;0.00;;;15.50;99.90;;;;;;4209936;28;20032;-61
2023/07/27 00:31:00;;;;;;;0.10;0.00;;;15.40;99.90;;;;;;4210145;28;20117;-61
2023/07/27 00:33:01;;;;;;;2.40;0.10;;;15.40;99.90;;;;;;4210128;28;20033;-61
2023/07/27 00:35:03;;;;;;;1.17;0.10;;;15.30;99.90;;;;;;4210225;28;20093;-61
2023/07/27 00:37:04;;;;;;;0.60;0.10;;;15.30;99.90;;;;;;4210572;28;20044;-61
2023/07/27 00:39:05;;;;;;;1.88;0.05;;;15.20;99.90;;;;;;4212354;28;20044;-64
2023/07/27 00:41:07;;;;;;;1.13;0.10;;;15.20;99.90;;;;;;4212162;28;20040;-68
2023/07/27 00:43:08;;;;;;;1.98;0.10;;;15.10;99.90;;;;;;4213810;28;20040;-62
2023/07/27 00:45:09;;;;;;;0.95;0.10;;;15.10;99.90;;;;;;4212506;28;20028;-62
2023/07/27 00:47:11;;;;;;;0.10;0.00;;;15.10;99.90;;;;;;4212491;28;20089;-63
2023/07/27 00:49:12;;;;;;;1.10;0.10;;;15.10;99.90;;;;;;4212295;28;20016;-68
2023/07/27 00:51:13;;;;;;;0.43;0.10;;;15.20;99.90;;;;;;4213619;28;20157;-62
2023/07/27 00:53:15;;;;;;;0.30;0.10;;;15.00;99.90;;;;;;4212364;28;20101;-65
2023/07/27 00:55:16;;;;;;;2.60;0.20;;;15.00;99.90;;;;;;4213060;28;20120;-62
2023/07/27 00:57:18;;;;;;;0.20;0.10;;;14.90;99.90;;;;;;4212384;28;20481;-61
2023/07/27 00:59:19;;;;;;;1.33;0.08;;;14.90;99.90;;;;;;4212744;28;20024;-60
2023/07/27 01:01:21;;;;;;;0.10;0.10;;;14.90;99.90;;;;;;4212662;28;20045;-61
2023/07/27 01:03:23;;;;;;;0.47;0.20;;;14.90;99.90;;;;;;4212738;28;20052;-61
2023/07/27 01:05:24;;;;;;;0.08;0.08;;;14.90;99.90;;;;;;4213070;28;20036;-60
2023/07/27 01:07:25;;;;;;;0.20;0.00;;;14.90;99.90;;;;;;4212043;28;20036;-61
2023/07/27 01:09:26;;;;;;;0.43;0.20;;;14.90;99.90;;;;;;4212902;28;20020;-62
2023/07/27 01:11:50;;;;;;;1.48;0.10;;;14.70;99.90;;;;;;4212076;28;20032;-62
2023/07/27 01:13:55;;;;;;;1.10;0.00;;;14.70;99.90;;;;;;4212844;28;21089;-61
2023/07/27 01:16:00;;;;;;;0.43;0.10;;;14.60;99.90;;;;;;4211739;28;20020;-59
2023/07/27 01:18:13;;;;;;;1.13;0.10;;;14.50;99.90;;;;;;4213046;28;20113;-61
2023/07/27 01:20:32;;;;;;;0.00;0.00;;;14.50;99.90;;;;;;4210582;28;20040;-61
2023/07/27 01:22:33;;;;;;;0.45;0.00;;;14.50;99.90;;;;;;4212713;28;20054;-62
2023/07/27 01:24:56;;;;;;;0.20;0.15;;;14.40;99.90;;;;;;4212027;28;20484;-61
2023/07/27 01:27:33;;;;;;;1.90;0.40;;;14.40;99.90;;;;;;4212749;28;20076;-61
2023/07/27 01:29:40;;;;;;;0.70;0.10;;;14.40;99.90;;;;;;4211873;28;20058;-61
2023/07/27 01:31:44;;;;;;;0.15;0.08;;;14.50;99.90;;;;;;4212210;28;20133;-62
2023/07/27 01:33:50;;;;;;;1.17;0.00;;;14.50;99.90;;;;;;4212375;28;20117;-62
2023/07/27 01:35:58;;;;;;;0.10;0.00;;;14.40;99.90;;;;;;4212174;28;20034;-60
2023/07/27 01:38:01;;;;;;;0.30;0.00;;;14.40;99.90;;;;;;4211941;28;20024;-61
2023/07/27 01:40:03;;;;;;;3.25;0.40;;;14.40;99.90;;;;;;4212044;28;20601;-61
2023/07/27 01:42:05;;;;;;;0.28;0.10;;;14.40;99.90;;;;;;4210752;28;20480;-62
2023/07/27 01:44:09;;;;;;;0.10;0.10;;;14.40;99.90;;;;;;4211754;28;20085;-62
2023/07/27 01:46:12;;;;;;;0.60;0.20;;;14.40;99.90;;;;;;4211332;28;20466;-67
2023/07/27 01:48:15;;;;;;;0.50;0.10;;;14.40;99.90;;;;;;4212532;28;20528;-61
2023/07/27 01:50:17;;;;;;;0.15;0.10;;;14.40;99.90;;;;;;4211294;28;20105;-61
2023/07/27 01:52:20;;;;;;;0.10;0.10;;;14.40;99.90;;;;;;4212654;28;20048;-61
2023/07/27 01:54:21;;;;;;;0.10;0.08;;;14.40;99.90;;;;;;4209428;28;20057;-61
2023/07/27 01:56:24;;;;;;;0.73;0.38;;;14.50;99.90;;;;;;4212740;28;20032;-61
2023/07/27 01:58:26;;;;;;;2.85;0.10;;;14.50;99.90;;;;;;4211314;28;20057;-62
2023/07/27 02:00:28;;;;;;;0.22;0.10;;;14.50;99.90;;;;;;4211582;28;20464;-60
2023/07/27 02:02:30;;;;;;;0.10;0.05;;;14.50;99.90;;;;;;4211257;28;20028;-61
2023/07/27 02:04:31;;;;;;;0.17;0.10;;;14.50;99.90;;;;;;4212798;28;20459;-60
2023/07/27 02:06:33;;;;;;;0.65;0.08;;;14.50;99.90;;;;;;4210749;28;20028;-61
2023/07/27 02:08:34;;;;;;;0.10;0.03;;;14.50;99.90;;;;;;4211944;28;20028;-59
2023/07/27 02:10:37;;;;;;;0.03;0.00;;;14.60;99.90;;;;;;4211604;28;20085;-60
2023/07/27 02:12:44;;;;;;;0.38;0.10;;;14.60;99.90;;;;;;4211632;28;20044;-60
2023/07/27 02:15:03;;;;;;;1.60;0.77;;;14.60;99.90;;;;;;4210791;28;20066;-60
2023/07/27 02:17:14;;;;;;;0.20;0.20;;;14.60;99.90;;;;;;4211195;28;20438;-62
2023/07/27 02:19:17;;;;;;;1.98;0.17;;;14.60;99.90;;;;;;4211300;28;20032;-61
2023/07/27 02:21:19;;;;;;;1.33;0.38;;;14.70;99.90;;;;;;4211482;28;20484;-61
2023/07/27 02:23:22;;;;;;;0.40;0.00;;;14.70;99.90;;;;;;4211675;28;20044;-60
2023/07/27 02:25:23;;;;;;;0.30;0.30;;;14.70;99.90;;;;;;4211291;28;20048;-60
2023/07/27 02:27:24;;;;;;;1.55;0.00;;;14.70;99.90;;;;;;4211638;28;20024;-60
2023/07/27 02:29:26;;;;;;;0.73;0.00;;;14.60;99.90;;;;;;4210681;28;20349;-60
2023/07/27 02:31:27;;;;;;;2.08;0.45;;;14.60;99.90;;;;;;4211124;28;20047;-58
2023/07/27 02:33:28;;;;;;;0.30;0.00;;;14.60;99.90;;;;;;4210619;28;20108;-62
2023/07/27 02:35:29;;;;;;;1.85;0.47;;;14.60;99.90;;;;;;4211902;28;20074;-60
2023/07/27 02:37:30;;;;;;;1.48;0.15;;;14.60;99.90;;;;;;4210558;28;20036;-61
2023/07/27 02:39:32;;;;;;;0.20;0.10;;;14.60;99.90;;;;;;4211493;28;20081;-60
2023/07/27 02:41:33;;;;;;;0.20;0.10;;;14.60;99.90;;;;;;4210781;28;20048;-64
2023/07/27 02:43:35;;;;;;;0.10;0.05;;;14.50;99.90;;;;;;4211920;28;20048;-62
2023/07/27 02:45:36;;;;;;;0.30;0.10;;;14.60;99.90;;;;;;4209632;28;20438;-60
2023/07/27 02:47:37;;;;;;;0.10;0.10;;;14.60;99.90;;;;;;4211204;28;20035;-61
2023/07/27 02:49:38;;;;;;;0.00;0.00;;;14.60;99.90;;;;;;4210477;28;20415;-61
2023/07/27 02:51:41;;;;;;;0.22;0.00;;;14.60;99.90;;;;;;4211113;28;20035;-67
2023/07/27 02:53:42;;;;;;;1.75;0.00;;;14.60;99.90;;;;;;4210557;28;20434;-61
2023/07/27 02:55:53;;;;;;;0.60;0.10;;;14.50;99.90;;;;;;4210992;28;20435;-60
2023/07/27 02:57:54;;;;;;;0.82;0.00;;;14.50;99.90;;;;;;4211199;28;20032;-60
2023/07/27 02:59:55;;;;;;;0.10;0.10;;;14.50;99.90;;;;;;4209801;28;20024;-62
2023/07/27 03:01:56;;;;;;;0.13;0.13;;;14.50;99.90;;;;;;4211172;28;20377;-62
2023/07/27 03:03:57;;;;;;;1.17;0.10;;;14.50;99.90;;;;;;4209420;28;20101;-61
2023/07/27 03:06:02;;;;;;;0.30;0.10;;;14.50;99.90;;;;;;4211361;28;20457;-60
2023/07/27 03:08:04;;;;;;;1.45;0.20;;;14.50;99.90;;;;;;4209893;28;20113;-61
2023/07/27 03:10:05;;;;;;;1.13;0.10;;;14.50;99.90;;;;;;4208624;28;20039;-61
2023/07/27 03:12:07;;;;;;;0.43;0.20;;;14.50;99.90;;;;;;4208180;28;20110;-62
2023/07/27 03:14:08;;;;;;;0.60;0.10;;;14.50;99.90;;;;;;4209184;28;20069;-60
2023/07/27 03:16:09;;;;;;;0.63;0.30;;;14.40;99.90;;;;;;4209886;28;20136;-62
2023/07/27 03:18:10;;;;;;;3.03;0.10;;;14.40;99.90;;;;;;4211287;28;20069;-62
2023/07/27 03:20:11;;;;;;;0.70;0.08;;;14.40;99.90;;;;;;4209670;28;20031;-64
2023/07/27 03:22:13;;;;;;;0.43;0.13;;;14.40;99.90;;;;;;4210465;28;20131;-63
2023/07/27 03:24:16;;;;;;;0.30;0.05;;;14.40;99.90;;;;;;4209650;28;20066;-61
2023/07/27 03:26:17;;;;;;;0.82;0.82;;;14.30;99.90;;;;;;4210590;28;20024;-60
2023/07/27 03:28:18;;;;;;;0.55;0.20;;;14.30;99.90;;;;;;4210340;28;20082;-61
2023/07/27 03:30:19;;;;;;;0.20;0.10;;;14.30;99.90;;;;;;4209124;28;20135;-60
2023/07/27 03:32:21;;;;;;;1.05;0.03;;;14.30;99.90;;;;;;4210125;28;20047;-61
2023/07/27 03:34:22;;;;;;;1.55;0.90;;;14.30;99.90;;;;;;4210139;28;20036;-61
2023/07/27 03:36:23;;;;;;;1.27;0.10;;;14.40;99.90;;;;;;4210740;28;20031;-60
2023/07/27 03:38:24;;;;;;;0.10;0.10;;;14.40;99.90;;;;;;4209878;28;20032;-60
2023/07/27 03:40:25;;;;;;;0.57;0.10;;;14.40;99.90;;;;;;4210833;28;20044;-61
2023/07/27 03:42:26;;;;;;;0.57;0.10;;;14.50;99.90;;;;;;4209753;28;20036;-61
2023/07/27 03:44:27;;;;;;;2.50;0.20;;;14.40;99.90;;;;;;4209927;28;20093;-61
2023/07/27 03:46:29;;;;;;;0.60;0.20;;;14.40;99.90;;;;;;4209622;28;20032;-61
2023/07/27 03:48:30;;;;;;;0.10;0.00;;;14.40;99.90;;;;;;4210674;28;20032;-61
2023/07/27 03:50:31;;;;;;;0.20;0.20;;;14.40;99.90;;;;;;4208669;28;20413;-61
2023/07/27 03:52:32;;;;;;;0.85;0.30;;;14.50;99.90;;;;;;4210300;28;20071;-60
2023/07/27 03:54:33;;;;;;;0.10;0.10;;;14.60;99.90;;;;;;4209426;28;20032;-60
2023/07/27 03:56:34;;;;;;;0.50;0.13;;;15.00;99.90;;;;;;4210037;28;20466;-61
2023/07/27 03:58:35;;;;;;;6.80;5.03;;;15.00;99.90;;;;;;4209934;28;20086;-61
2023/07/27 04:00:36;;;;;;;0.65;0.38;;;15.00;99.90;;;;;;4207716;28;20053;-62
2023/07/27 04:02:37;;;;;;;1.40;1.23;;;14.90;99.90;;;;;;4209832;28;20089;-60
2023/07/27 04:04:39;;;;;;;3.28;0.10;;;14.90;99.90;;;;;;4206465;28;20550;-60
2023/07/27 04:06:41;;;;;;;0.80;0.20;;;14.90;99.90;;;;;;4210592;28;20140;-60
2023/07/27 04:08:43;;;;;;;0.10;0.10;;;15.00;99.90;;;;;;4209259;28;20090;-61
2023/07/27 04:10:44;;;;;;;0.05;0.03;;;15.00;99.90;;;;;;4210686;28;20089;-61
2023/07/27 04:12:45;;;;;;;0.50;0.17;;;15.00;99.90;;;;;;4211189;28;20064;-61
2023/07/27 04:14:46;;;;;;;0.85;0.40;;;15.00;99.90;;;;;;4213615;28;20062;-62
2023/07/27 04:16:47;;;;;;;0.13;0.10;;;15.00;99.90;;;;;;4212691;28;20089;-61
2023/07/27 04:18:48;;;;;;;0.43;0.10;;;15.00;99.90;;;;;;4213662;28;20040;-62
2023/07/27 04:20:49;;;;;;;0.68;0.20;;;15.40;99.90;;;;;;4212920;28;20347;-60
2023/07/27 04:22:50;;;;;;;0.32;0.10;;;15.50;99.90;;;;;;4213531;28;20389;-61
2023/07/27 04:24:52;;;;;;;0.68;0.10;;;15.60;99.90;;;;;;4211350;28;20044;-61
2023/07/27 04:26:53;;;;;;;1.60;0.20;;;15.60;99.90;;;;;;4213621;28;20093;-61
2023/07/27 04:28:54;;;;;;;0.20;0.20;;;15.60;99.90;;;;;;4210631;28;20434;-61
2023/07/27 04:30:55;;;;;;;2.50;0.15;;;15.60;99.90;;;;;;4213665;28;20043;-60
2023/07/27 04:32:56;;;;;;;0.73;0.15;;;15.50;99.90;;;;;;4213386;28;20149;-61
2023/07/27 04:34:57;;;;;;;0.55;0.10;;;15.50;99.90;;;;;;4212620;28;20036;-59
2023/07/27 04:36:58;;;;;;;0.73;0.30;;;15.40;99.90;;;;;;4213399;28;20069;-61
2023/07/27 04:38:59;;;;;;;0.90;0.20;;;15.50;99.90;;;;;;4212307;28;20081;-61
2023/07/27 04:41:00;;;;;;;1.63;0.20;;;15.50;99.90;;;;;;4213897;28;20571;-60
2023/07/27 04:43:02;;;;;;;0.20;0.10;;;15.50;99.90;;;;;;4212287;28;20035;-60
2023/07/27 04:45:03;;;;;;;2.08;0.20;;;15.40;99.90;;;;;;4213503;28;20430;-61
2023/07/27 04:47:04;;;;;;;0.30;0.20;;;15.40;99.90;;;;;;4212498;28;20032;-61
2023/07/27 04:49:06;;;;;;;0.60;0.15;;;15.50;99.90;;;;;;4212893;28;20035;-63
2023/07/27 04:51:07;;;;;;;1.75;0.22;;;15.60;99.90;;;;;;4210532;28;20477;-62
2023/07/27 04:53:09;;;;;;;0.40;0.30;;;15.70;99.90;;;;;;4213063;28;20169;-61
2023/07/27 04:55:10;;;;;;;0.73;0.30;;;15.70;99.90;;;;;;4212393;28;20044;-61
2023/07/27 04:57:11;;;;;;;2.72;0.30;;;15.80;99.90;;;;;;4212720;28;20024;-60
2023/07/27 04:59:12;;;;;;;1.67;0.30;;;15.80;99.90;;;;;;4212484;28;20072;-60
2023/07/27 05:01:13;;;;;;;2.05;0.40;;;15.80;99.90;;;;;;4212061;28;20101;-60
2023/07/27 05:03:14;;;;;;;1.23;0.10;;;15.80;99.90;;;;;;4213141;28;20078;-60
2023/07/27 05:05:15;;;;;;;2.08;0.85;;;15.90;99.90;;;;;;4210837;28;20062;-61
2023/07/27 05:07:16;;;;;;;0.73;0.40;;;15.80;99.90;;;;;;4213086;28;20069;-61
2023/07/27 05:09:17;;;;;;;1.85;0.70;;;15.80;99.90;;;;;;4211723;28;20044;-62
2023/07/27 05:11:18;;;;;;;3.38;0.30;;;15.80;99.90;;;;;;4212792;28;20043;-65
2023/07/27 05:13:19;;;;;;;0.65;0.20;;;15.90;99.90;;;;;;4211774;28;20036;-62
2023/07/27 05:15:21;;;;;;;0.77;0.47;;;15.80;99.90;;;;;;4213102;28;20097;-60
2023/07/27 05:17:22;;;;;;;0.98;0.35;;;15.70;99.90;;;;;;4211768;28;20028;-62
2023/07/27 05:19:23;;;;;;;3.45;2.35;;;15.80;99.90;;;;;;4212728;28;20082;-69
2023/07/27 05:21:24;;;;;;;1.00;0.77;;;15.70;99.90;;;;;;4211566;28;20020;-63
2023/07/27 05:23:26;;;;;;;1.48;0.40;;;15.60;99.90;;;;;;4211895;28;20028;-62
2023/07/27 05:25:27;;;;;;;0.20;0.10;;;15.60;99.90;;;;;;4211469;28;20611;-62
2023/07/27 05:27:28;;;;;;;0.70;0.22;;;15.40;99.90;;;;;;4212044;28;20024;-61
2023/07/27 05:29:30;;;;;;;1.30;0.60;;;15.50;99.90;;;;;;4211871;28;20078;-64
2023/07/27 05:31:31;;;;;;;0.30;0.20;;;15.50;99.90;;;;;;4212143;28;20077;-61
2023/07/27 05:33:32;;;;;;;1.02;0.60;;;15.50;99.90;;;;;;4212452;28;20514;-60
2023/07/27 05:35:33;;;;;;;0.30;0.30;;;15.50;99.90;;;;;;4211591;28;20557;-60
2023/07/27 05:37:35;;;;;;;1.95;0.40;;;15.60;99.90;;;;;;4212433;28;20028;-60
2023/07/27 05:39:36;;;;;;;0.45;0.43;;;15.60;99.90;;;;;;4211377;28;20036;-62
2023/07/27 05:41:37;;;;;;;0.45;0.40;;;15.80;99.90;;;;;;4212440;28;20101;-61
2023/07/27 05:43:38;;;;;;;3.05;0.47;;;15.70;99.90;;;;;;4211596;28;20476;-63
2023/07/27 05:45:39;;;;;;;1.20;0.20;;;15.90;99.90;;;;;;4212323;28;20024;-66
2023/07/27 05:47:40;;;;;;;1.35;0.30;;;16.00;99.90;;;;;;4211179;28;20054;-61
2023/07/27 05:49:41;;;;;;;0.40;0.20;;;15.80;99.90;;;;;;4212434;28;20357;-62
2023/07/27 05:51:42;;;;;;;4.03;0.35;;;15.60;99.90;;;;;;4211056;28;20024;-63
2023/07/27 05:53:44;;;;;;;1.95;0.50;;;15.50;99.90;;;;;;4212199;28;20121;-63
2023/07/27 05:55:45;;;;;;;2.10;0.30;;;15.60;99.90;;;;;;4210046;28;20117;-61
2023/07/27 05:57:47;;;;;;;4.80;0.68;;;15.60;99.90;;;;;;4211561;28;20436;-62
2023/07/27 05:59:48;;;;;;;5.03;0.47;;;15.70;99.90;;;;;;4211782;28;20093;-61
2023/07/27 06:01:49;;;;;;;0.65;0.10;;;15.70;99.90;;;;;;4211216;28;20101;-70
2023/07/27 06:03:50;;;;;;;1.25;0.22;;;15.70;99.90;;;;;;4211754;28;20525;-60
2023/07/27 06:05:51;;;;;;;0.20;0.20;;;15.70;99.90;;;;;;4210969;28;20028;-63
2023/07/27 06:07:52;;;;;;;1.02;0.30;;;15.50;99.90;;;;;;4212169;28;20040;-63
2023/07/27 06:09:53;;;;;;;0.20;0.20;;;15.60;99.90;;;;;;4211038;28;20488;-61
2023/07/27 06:11:55;;;;;;;1.58;0.65;;;15.70;99.90;;;;;;4211843;28;20081;-60
2023/07/27 06:13:56;;;;;;;0.85;0.45;;;15.70;99.90;;;;;;4210802;28;20069;-60
2023/07/27 06:15:57;;;;;;;0.52;0.30;;;15.60;99.90;;;;;;4210417;28;20066;-60
2023/07/27 06:17:58;;;;;;;1.98;0.30;;;15.60;99.90;;;;;;4210855;28;20040;-61
2023/07/27 06:20:00;;;;;;;0.88;0.20;;;15.60;99.90;;;;;;4212037;28;20121;-60
2023/07/27 06:22:01;;;;;;;0.45;0.30;;;15.60;99.90;;;;;;4210648;28;20442;-60
2023/07/27 06:24:02;;;;;;;1.23;0.60;;;15.70;99.90;;;;;;4211925;28;20093;-65
2023/07/27 06:26:03;;;;;;;1.15;0.32;;;15.70;99.90;;;;;;4210742;28;20024;-62
2023/07/27 06:28:04;;;;;;;0.60;0.30;;;15.60;99.90;;;;;;4211243;28;20121;-66
2023/07/27 06:30:08;;;;;;;0.40;0.30;;;15.60;99.90;;;;;;4211004;28;20097;-67
2023/07/27 06:32:09;;;;;;;0.63;0.20;;;15.50;99.90;;;;;;4210770;28;20377;-65
2023/07/27 06:34:10;;;;;;;0.82;0.25;;;15.50;99.90;;;;;;4210480;28;20097;-63
2023/07/27 06:36:11;;;;;;;0.93;0.38;;;15.50;99.90;;;;;;4210379;28;20077;-68
2023/07/27 06:38:12;;;;;;;0.57;0.35;;;15.50;99.90;;;;;;4211363;28;20541;-61
2023/07/27 06:40:14;;;;;;;1.85;0.20;;;15.50;99.90;;;;;;4210114;28;20028;-63
2023/07/27 06:42:15;;;;;;;0.98;0.50;;;15.50;99.90;;;;;;4211286;28;20452;-62
2023/07/27 06:44:16;;;;;;;1.65;0.22;;;15.50;99.90;;;;;;4210356;28;20052;-61
2023/07/27 06:46:18;;;;;;;0.60;0.30;;;15.50;99.90;;;;;;4211669;28;20515;-61
2023/07/27 06:48:19;;;;;;;0.30;0.20;;;15.50;99.90;;;;;;4210313;28;20430;-61
2023/07/27 06:50:20;;;;;;;0.50;0.30;;;15.40;99.90;;;;;;4211458;28;20101;-64
2023/07/27 06:52:21;;;;;;;0.30;0.20;;;15.50;99.90;;;;;;4210149;28;20093;-60
2023/07/27 06:54:22;;;;;;;2.70;0.40;;;15.40;99.90;;;;;;4211271;28;20109;-61
2023/07/27 06:56:23;;;;;;;0.20;0.10;;;15.50;99.90;;;;;;4210226;28;20455;-62
2023/07/27 06:58:25;;;;;;;0.70;0.32;;;15.60;99.90;;;;;;4211137;28;20140;-65
2023/07/27 07:00:26;;;;;;;0.22;0.22;;;15.60;99.90;;;;;;4210312;28;20066;-64
2023/07/27 07:02:27;;;;;;;3.10;0.38;;;15.70;99.90;;;;;;4210708;28;20476;-60
2023/07/27 07:04:30;;;;;;;0.20;0.10;;;15.60;99.90;;;;;;4210784;28;20431;-61
2023/07/27 07:06:31;;;;;;;0.73;0.30;;;15.70;99.90;;;;;;4210473;28;20109;-60
2023/07/27 07:08:32;;;;;;;2.10;0.20;;;15.80;99.90;;;;;;4210793;28;20085;-61
2023/07/27 07:10:33;;;;;;;1.55;0.20;;;15.90;99.90;;;;;;4209987;28;20531;-65
2023/07/27 07:12:34;;;;;;;0.65;0.20;;;16.00;99.90;;;;;;4210704;28;20036;-63
2023/07/27 07:14:35;;;;;;;1.30;0.20;;;15.90;99.90;;;;;;4209765;28;20043;-60
2023/07/27 07:16:36;;;;;;;2.72;0.32;;;15.90;99.90;;;;;;4210736;28;20024;-60
2023/07/27 07:18:37;;;;;;;0.90;0.20;;;15.90;99.90;;;;;;4210082;28;20036;-61
2023/07/27 07:20:39;;;;;;;0.98;0.30;;;15.90;99.90;;;;;;4210704;28;20446;-60
2023/07/27 07:22:40;;;;;;;0.82;0.30;;;15.90;99.90;;;;;;4209565;28;20442;-62
2023/07/27 07:24:41;;;;;;;1.80;0.40;;;16.00;99.90;;;;;;4210759;28;20790;-61
2023/07/27 07:26:42;;;;;;;0.85;0.20;;;16.10;99.90;;;;;;4209454;28;20036;-68
2023/07/27 07:28:43;;;;;;;0.38;0.30;;;16.20;99.90;;;;;;4208847;28;20471;-60
2023/07/27 07:30:44;;;;;;;1.40;0.32;;;16.20;99.90;;;;;;4209795;28;20036;-61
2023/07/27 07:32:45;;;;;;;0.63;0.43;;;16.20;99.90;;;;;;4210125;28;20108;-64
2023/07/27 07:34:46;;;;;;;0.90;0.40;;;16.20;99.90;;;;;;4210276;28;20020;-62
2023/07/27 07:36:48;;;;;;;0.50;0.10;;;16.20;99.90;;;;;;4209808;28;20036;-65
2023/07/27 07:38:49;;;;;;;0.40;0.20;;;16.20;99.90;;;;;;4210564;28;20028;-61
2023/07/27 07:40:50;;;;;;;0.57;0.20;;;16.20;99.90;;;;;;4209664;28;20036;-61
2023/07/27 07:42:51;;;;;;;3.50;0.50;;;16.20;99.90;;;;;;4210212;28;20036;-60
2023/07/27 07:44:52;;;;;;;1.00;0.20;;;16.20;99.90;;;;;;4207448;28;20447;-61
2023/07/27 07:46:53;;;;;;;0.77;0.20;;;16.20;99.90;;;;;;4204167;28;20089;-62
2023/07/27 07:48:56;;;;;;;0.38;0.20;;;16.30;99.90;;;;;;4204707;28;20032;-62
2023/07/27 07:50:58;;;;;;;0.52;0.25;;;16.30;99.90;;;;;;4208492;28;20032;-61
2023/07/27 07:52:59;;;;;;;2.17;0.40;;;16.30;99.90;;;;;;4208959;28;20105;-61
2023/07/27 07:55:00;;;;;;;2.85;1.00;;;16.30;99.90;;;;;;4210601;28;20066;-63
2023/07/27 07:57:01;;;;;;;0.25;0.15;;;16.30;99.90;;;;;;4209155;28;20097;-62
2023/07/27 07:59:03;;;;;;;0.90;0.20;;;16.20;99.90;;;;;;4210249;28;20097;-66
2023/07/27 08:01:04;;;;;;;1.17;0.22;;;16.20;99.90;;;;;;4209974;28;20108;-61
2023/07/27 08:03:05;;;;;;;3.15;0.28;;;16.20;99.90;;;;;;4209933;28;20024;-63
2023/07/27 08:05:06;;;;;;;0.30;0.20;;;16.20;99.90;;;;;;4210315;28;20046;-61
2023/07/27 08:07:07;;;;;;;1.27;0.25;;;16.30;99.90;;;;;;4209591;28;20438;-61
2023/07/27 08:09:08;;;;;;;0.43;0.20;;;16.40;99.90;;;;;;4210039;28;20032;-63
2023/07/27 08:11:10;;;;;;;0.32;0.25;;;16.50;99.90;;;;;;4209129;28;20044;-62
2023/07/27 08:13:11;;;;;;;0.77;0.35;;;16.70;99.90;;;;;;4208318;28;20144;-62
2023/07/27 08:15:12;;;;;;;0.60;0.30;;;16.90;99.90;;;;;;4208701;28;20020;-61
2023/07/27 08:17:13;;;;;;;0.20;0.20;;;16.90;99.90;;;;;;4210496;28;20036;-60
2023/07/27 08:19:14;;;;;;;0.30;0.15;;;17.30;99.90;;;;;;4208583;28;20119;-62
2023/07/27 08:21:15;;;;;;;0.57;0.20;;;17.60;99.90;;;;;;4209256;28;20032;-65
2023/07/27 08:23:16;;;;;;;0.60;0.00;;;17.80;99.90;;;;;;4207332;28;20032;-61
2023/07/27 08:25:17;;;;;;;0.60;0.13;;;18.10;99.90;;;;;;4210310;28;20149;-62
2023/07/27 08:27:18;;;;;;;0.47;0.25;;;18.30;99.90;;;;;;4208814;28;20036;-62
2023/07/27 08:29:20;;;;;;;1.00;0.30;;;18.40;99.90;;;;;;4209909;28;20079;-60
2023/07/27 08:31:21;;;;;;;0.20;0.15;;;18.40;99.90;;;;;;4209166;28;20070;-61
2023/07/27 08:33:22;;;;;;;0.30;0.20;;;18.50;99.90;;;;;;4209323;28;20040;-61
2023/07/27 08:35:23;;;;;;;0.82;0.40;;;18.60;99.90;;;;;;4209756;28;20040;-60
2023/07/27 08:37:24;;;;;;;1.65;0.20;;;18.70;99.90;;;;;;4208043;28;20016;-60
2023/07/27 08:39:26;;;;;;;0.30;0.10;;;18.60;99.90;;;;;;4209403;28;20056;-61
2023/07/27 08:41:28;;;;;;;4.30;0.20;;;18.50;99.90;;;;;;4208142;28;20462;-61
2023/07/27 08:43:29;;;;;;;1.55;0.20;;;18.40;99.90;;;;;;4208905;28;20097;-62
2023/07/27 08:45:31;;;;;;;1.33;0.30;;;18.30;99.90;;;;;;4208072;28;20089;-61
2023/07/27 08:47:33;;;;;;;0.50;0.10;;;18.30;99.90;;;;;;4209897;28;20035;-61
2023/07/27 08:49:34;;;;;;;1.02;0.20;;;18.20;99.90;;;;;;4207965;28;20073;-61
2023/07/27 08:51:37;;;;;;;1.15;0.20;;;18.20;99.90;;;;;;4208843;28;20074;-61
2023/07/27 08:53:38;;;;;;;1.50;0.20;;;18.40;99.90;;;;;;4208048;28;20315;-62
2023/07/27 08:55:40;;;;;;;0.60;0.22;;;18.50;99.90;;;;;;4209069;28;20027;-61
2023/07/27 08:57:41;;;;;;;1.33;0.20;;;18.40;99.90;;;;;;4209154;28;20036;-62
2023/07/27 08:59:43;;;;;;;4.85;0.50;;;18.70;99.90;;;;;;4212117;28;20017;-61
2023/07/27 09:01:44;;;;;;;0.70;0.32;;;18.70;99.90;;;;;;4211267;28;20044;-64
2023/07/27 09:03:46;;;;;;;0.60;0.43;;;19.10;99.90;;;;;;4210849;28;20031;-62
2023/07/27 09:05:58;;;;;;;3.80;0.22;;;19.40;99.90;;;;;;4211005;28;20434;-61
2023/07/27 09:08:06;;;;;;;0.77;0.40;;;19.50;99.90;;;;;;4195493;28;20098;-60
2023/07/27 09:10:11;;;;;;;1.05;0.32;;;19.40;99.90;;;;;;4195745;28;20033;-60
2023/07/27 09:12:16;;;;;;;2.28;0.30;;;19.30;99.90;;;;;;4195531;28;20029;-62
2023/07/27 09:14:19;;;;;;;0.60;0.45;;;19.00;99.90;;;;;;4195601;28;20094;-62
2023/07/27 09:16:24;;;;;;;0.40;0.40;;;19.10;99.90;;;;;;4204414;28;20032;-60
2023/07/27 09:18:26;;;;;;;0.43;0.30;;;19.20;99.90;;;;;;4214515;28;20040;-60
2023/07/27 09:20:28;;;;;;;1.35;0.43;;;19.30;99.90;;;;;;4210557;28;20020;-61
2023/07/27 09:22:33;;;;;;;1.08;0.40;;;19.20;99.90;;;;;;4212336;28;20208;-61
2023/07/27 09:24:35;;;;;;;2.15;0.55;;;19.20;99.90;;;;;;4210610;28;20092;-60
2023/07/27 09:26:44;;;;;;;0.77;0.40;;;19.40;99.90;;;;;;4211806;28;20036;-63
2023/07/27 09:28:45;;;;;;;0.40;0.40;;;19.60;99.90;;;;;;4210410;28;20036;-63
2023/07/27 09:30:46;;;;;;;2.72;0.50;;;19.80;99.90;;;;;;4211896;28;20040;-60
2023/07/27 09:32:48;;;;;;;0.68;0.43;;;20.00;99.90;;;;;;4210613;28;20024;-60
2023/07/27 09:34:58;;;;;;;1.00;0.55;;;20.10;99.90;;;;;;4211544;28;21369;-59
2023/07/27 09:37:04;;;;;;;0.40;0.40;;;20.30;99.90;;;;;;4210671;28;20105;-60
2023/07/27 09:39:05;;;;;;;2.90;0.50;;;20.50;99.90;;;;;;4211804;28;20040;-59
2023/07/27 09:41:07;;;;;;;1.50;0.90;;;20.40;99.90;;;;;;4210897;28;20044;-56
2023/07/27 09:43:08;;;;;;;1.63;0.70;;;20.40;99.90;;;;;;4212093;28;20024;-60
2023/07/27 09:45:10;;;;;;;1.38;0.90;;;20.40;99.90;;;;;;4209786;28;20016;-59
2023/07/27 09:47:19;;;;;;;1.20;0.60;;;20.30;99.90;;;;;;4211407;28;20109;-58
2023/07/27 09:49:21;;;;;;;3.20;0.80;;;20.30;99.90;;;;;;4210764;28;20100;-57
2023/07/27 09:51:24;;;;;;;1.17;0.90;;;20.30;99.90;;;;;;4210575;28;20039;-59
2023/07/27 09:53:29;;;;;;;1.92;1.20;;;20.30;99.90;;;;;;4211230;28;20056;-55
2023/07/27 09:55:32;;;;;;;1.45;1.10;;;20.30;99.90;;;;;;4209648;28;20100;-61
2023/07/27 09:57:34;;;;;;;5.47;1.50;;;20.10;99.90;;;;;;4209523;28;20024;-60
2023/07/27 09:59:35;;;;;;;8.82;1.75;;;19.90;99.90;;;;;;4209724;28;20450;-61
2023/07/27 10:01:37;;;;;;;6.38;2.08;;;19.70;99.90;;;;;;4210386;28;20032;-61
2023/07/27 10:03:38;;;;;;;1.40;1.30;;;19.70;99.90;;;;;;4211797;28;20084;-64
2023/07/27 10:05:41;;;;;;;1.23;1.10;;;19.70;99.90;;;;;;4211312;28;20097;-62
2023/07/27 10:07:43;;;;;;;1.55;1.20;;;19.60;99.90;;;;;;4209647;28;20070;-61
2023/07/27 10:09:45;;;;;;;2.08;1.10;;;19.60;99.90;;;;;;4211278;28;20040;-61
2023/07/27 10:11:57;;;;;;;1.95;1.00;;;19.70;99.90;;;;;;4210091;28;20625;-61
2023/07/27 10:14:16;;;;;;;2.03;1.30;;;19.80;99.90;;;;;;4211481;28;20120;-62
2023/07/27 10:16:19;;;;;;;2.95;1.33;;;19.80;99.90;;;;;;4209740;28;20075;-60
2023/07/27 10:18:31;;;;;;;2.88;1.40;;;19.70;99.90;;;;;;4211148;28;20089;-61
2023/07/27 10:20:34;;;;;;;1.92;1.20;;;19.80;99.90;;;;;;4210020;28;20047;-61
2023/07/27 10:22:35;;;;;;;3.25;1.10;;;19.80;99.90;;;;;;4212012;28;20497;-63
2023/07/27 10:24:53;;;;;;;3.17;1.55;;;19.90;99.90;;;;;;4210675;28;20073;-59
2023/07/27 10:26:54;;;;;;;3.38;1.95;;;19.70;99.90;;;;;;4170625;28;20514;-59
2023/07/27 10:28:55;;;;;;;2.15;1.50;;;19.60;99.90;;;;;;3967486;28;21225;-59
2023/07/27 10:31:23;;;;;;;1.58;1.48;;;19.60;99.90;;;;;;3969336;28;20488;-60
2023/07/27 10:33:27;;;;;;;2.55;1.30;;;19.60;99.90;;;;;;3966596;28;20638;-59
2023/07/27 10:35:31;;;;;;;2.25;1.90;;;19.40;99.90;;;;;;3980795;28;20101;-61
2023/07/27 10:37:52;;;;;;;4.22;1.48;;;19.30;99.90;;;;;;4082030;28;20065;-59